sensor_id;sensor_type;location;lat;lon;timestamp;temperature;humidity
19496;DHT22;9888;48.606;9.630;2023-12-20T00:01:10;6.00;99.90
19496;DHT22;9888;48.606;9.630;2023-12-20T00:03:37;6.10;99.90
19496;DHT22;9888;48.606;9.630;2023-12-20T00:06:04;6.00;99.90
19496;DHT22;9888;48.606;9.630;2023-12-20T00:08:42;6.10;99.90
19496;DHT22;9888;48.606;9.630;2023-12-20T00:11:11;6.10;99.90
19496;DHT22;9888;48.606;9.630;2023-12-20T00:13:38;6.00;99.90
19496;DHT22;9888;48.606;9.630;2023-12-20T00:16:06;6.00;99.90
19496;DHT22;9888;48.606;9.630;2023-12-20T00:18:34;6.00;99.90
19496;DHT22;9888;48.606;9.630;2023-12-20T00:21:03;6.00;99.90
19496;DHT22;9888;48.606;9.630;2023-12-20T00:23:30;6.10;99.90
19496;DHT22;9888;48.606;9.630;2023-12-20T00:25:57;6.10;99.90
19496;DHT22;9888;48.606;9.630;2023-12-20T00:28:25;6.10;99.90
19496;DHT22;9888;48.606;9.630;2023-12-20T00:30:52;6.00;99.90
19496;DHT22;9888;48.606;9.630;2023-12-20T00:36:41;6.00;99.90
19496;DHT22;9888;48.606;9.630;2023-12-20T00:39:08;6.00;99.90
19496;DHT22;9888;48.606;9.630;2023-12-20T00:41:35;6.00;99.90
19496;DHT22;9888;48.606;9.630;2023-12-20T00:44:02;6.00;99.90
19496;DHT22;9888;48.606;9.630;2023-12-20T00:46:29;6.00;99.90
19496;DHT22;9888;48.606;9.630;2023-12-20T00:52:18;6.00;99.90
19496;DHT22;9888;48.606;9.630;2023-12-20T00:54:45;6.00;99.90
19496;DHT22;9888;48.606;9.630;2023-12-20T00:57:14;6.00;99.90
19496;DHT22;9888;48.606;9.630;2023-12-20T00:59:42;6.00;99.90
19496;DHT22;9888;48.606;9.630;2023-12-20T01:02:10;6.00;99.90
19496;DHT22;9888;48.606;9.630;2023-12-20T01:07:54;6.00;99.90
19496;DHT22;9888;48.606;9.630;2023-12-20T01:10:25;5.90;99.90
19496;DHT22;9888;48.606;9.630;2023-12-20T01:12:55;5.90;99.90
19496;DHT22;9888;48.606;9.630;2023-12-20T01:15:23;5.90;99.90
19496;DHT22;9888;48.606;9.630;2023-12-20T01:17:52;5.90;99.90
19496;DHT22;9888;48.606;9.630;2023-12-20T01:20:19;5.90;99.90
19496;DHT22;9888;48.606;9.630;2023-12-20T01:22:48;6.00;99.90
19496;DHT22;9888;48.606;9.630;2023-12-20T01:25:16;6.00;99.90
19496;DHT22;9888;48.606;9.630;2023-12-20T01:27:47;6.00;99.90
19496;DHT22;9888;48.606;9.630;2023-12-20T01:30:16;6.00;99.90
19496;DHT22;9888;48.606;9.630;2023-12-20T01:32:43;6.00;99.90
19496;DHT22;9888;48.606;9.630;2023-12-20T01:35:10;5.90;99.90
19496;DHT22;9888;48.606;9.630;2023-12-20T01:37:39;6.00;99.90
19496;DHT22;9888;48.606;9.630;2023-12-20T01:40:07;6.00;99.90
19496;DHT22;9888;48.606;9.630;2023-12-20T01:42:34;6.00;99.90
19496;DHT22;9888;48.606;9.630;2023-12-20T01:45:02;6.00;99.90
19496;DHT22;9888;48.606;9.630;2023-12-20T01:47:29;6.00;99.90
19496;DHT22;9888;48.606;9.630;2023-12-20T01:49:57;5.90;99.90
19496;DHT22;9888;48.606;9.630;2023-12-20T01:52:26;5.80;99.90
19496;DHT22;9888;48.606;9.630;2023-12-20T01:54:57;5.60;99.90
19496;DHT22;9888;48.606;9.630;2023-12-20T01:57:29;5.50;99.90
19496;DHT22;9888;48.606;9.630;2023-12-20T01:59:57;5.40;99.90
19496;DHT22;9888;48.606;9.630;2023-12-20T02:02:26;5.30;99.90
19496;DHT22;9888;48.606;9.630;2023-12-20T02:04:54;5.10;99.90
19496;DHT22;9888;48.606;9.630;2023-12-20T02:07:22;5.10;99.90
19496;DHT22;9888;48.606;9.630;2023-12-20T02:12:55;4.80;99.90
19496;DHT22;9888;48.606;9.630;2023-12-20T02:15:23;4.60;99.90
19496;DHT22;9888;48.606;9.630;2023-12-20T02:17:50;4.50;99.90
19496;DHT22;9888;48.606;9.630;2023-12-20T02:20:18;4.50;99.90
19496;DHT22;9888;48.606;9.630;2023-12-20T02:22:46;4.40;99.90
19496;DHT22;9888;48.606;9.630;2023-12-20T02:25:26;4.30;99.90
19496;DHT22;9888;48.606;9.630;2023-12-20T02:27:54;4.30;99.90
19496;DHT22;9888;48.606;9.630;2023-12-20T02:30:21;4.30;99.90
19496;DHT22;9888;48.606;9.630;2023-12-20T02:32:51;4.30;99.90
19496;DHT22;9888;48.606;9.630;2023-12-20T02:35:39;4.30;99.90
19496;DHT22;9888;48.606;9.630;2023-12-20T02:38:07;4.20;99.90
19496;DHT22;9888;48.606;9.630;2023-12-20T02:40:34;4.20;99.90
19496;DHT22;9888;48.606;9.630;2023-12-20T02:43:01;4.20;99.90
19496;DHT22;9888;48.606;9.630;2023-12-20T02:45:29;4.20;99.90
19496;DHT22;9888;48.606;9.630;2023-12-20T02:47:56;4.20;99.90
19496;DHT22;9888;48.606;9.630;2023-12-20T02:50:24;4.10;99.90
19496;DHT22;9888;48.606;9.630;2023-12-20T02:52:52;4.20;99.90
19496;DHT22;9888;48.606;9.630;2023-12-20T02:55:21;4.20;99.90
19496;DHT22;9888;48.606;9.630;2023-12-20T02:57:49;4.10;99.90
19496;DHT22;9888;48.606;9.630;2023-12-20T03:00:18;4.20;99.90
19496;DHT22;9888;48.606;9.630;2023-12-20T03:02:46;4.10;99.90
19496;DHT22;9888;48.606;9.630;2023-12-20T03:05:13;4.20;99.90
19496;DHT22;9888;48.606;9.630;2023-12-20T03:07:40;4.20;99.90
19496;DHT22;9888;48.606;9.630;2023-12-20T03:13:30;4.30;99.90
19496;DHT22;9888;48.606;9.630;2023-12-20T03:16:00;4.20;99.90
19496;DHT22;9888;48.606;9.630;2023-12-20T03:18:26;4.30;99.90
19496;DHT22;9888;48.606;9.630;2023-12-20T03:20:55;4.30;99.90
19496;DHT22;9888;48.606;9.630;2023-12-20T03:23:22;4.20;99.90
19496;DHT22;9888;48.606;9.630;2023-12-20T03:25:49;4.20;99.90
19496;DHT22;9888;48.606;9.630;2023-12-20T03:28:17;4.10;99.90
19496;DHT22;9888;48.606;9.630;2023-12-20T03:30:45;4.10;99.90
19496;DHT22;9888;48.606;9.630;2023-12-20T03:33:13;4.10;99.90
19496;DHT22;9888;48.606;9.630;2023-12-20T03:35:40;4.10;99.90
19496;DHT22;9888;48.606;9.630;2023-12-20T03:38:07;4.10;99.90
19496;DHT22;9888;48.606;9.630;2023-12-20T03:40:36;4.00;99.90
19496;DHT22;9888;48.606;9.630;2023-12-20T03:43:03;4.00;99.90
19496;DHT22;9888;48.606;9.630;2023-12-20T03:45:39;4.00;99.90
19496;DHT22;9888;48.606;9.630;2023-12-20T03:48:07;4.00;99.90
19496;DHT22;9888;48.606;9.630;2023-12-20T03:50:40;3.90;99.90
19496;DHT22;9888;48.606;9.630;2023-12-20T03:53:09;3.90;99.90
19496;DHT22;9888;48.606;9.630;2023-12-20T03:55:37;3.80;99.90
19496;DHT22;9888;48.606;9.630;2023-12-20T03:58:05;3.80;99.90
19496;DHT22;9888;48.606;9.630;2023-12-20T04:00:33;3.70;99.90
19496;DHT22;9888;48.606;9.630;2023-12-20T04:03:02;3.70;99.90
19496;DHT22;9888;48.606;9.630;2023-12-20T04:05:33;3.60;99.90
19496;DHT22;9888;48.606;9.630;2023-12-20T04:08:01;3.60;99.90
19496;DHT22;9888;48.606;9.630;2023-12-20T04:10:30;3.60;99.90
19496;DHT22;9888;48.606;9.630;2023-12-20T04:12:58;3.60;99.90
19496;DHT22;9888;48.606;9.630;2023-12-20T04:18:48;3.60;99.90
19496;DHT22;9888;48.606;9.630;2023-12-20T04:21:16;3.50;99.90
19496;DHT22;9888;48.606;9.630;2023-12-20T04:23:45;3.50;99.90
19496;DHT22;9888;48.606;9.630;2023-12-20T04:26:14;3.50;99.90
19496;DHT22;9888;48.606;9.630;2023-12-20T04:28:41;3.50;99.90
19496;DHT22;9888;48.606;9.630;2023-12-20T04:31:09;3.40;99.90
19496;DHT22;9888;48.606;9.630;2023-12-20T04:33:36;3.40;99.90
19496;DHT22;9888;48.606;9.630;2023-12-20T04:36:06;3.40;99.90
19496;DHT22;9888;48.606;9.630;2023-12-20T04:38:36;3.40;99.90
19496;DHT22;9888;48.606;9.630;2023-12-20T04:41:16;3.40;99.90
19496;DHT22;9888;48.606;9.630;2023-12-20T04:43:45;3.40;99.90
19496;DHT22;9888;48.606;9.630;2023-12-20T04:46:21;3.30;99.90
19496;DHT22;9888;48.606;9.630;2023-12-20T04:48:48;3.30;99.90
19496;DHT22;9888;48.606;9.630;2023-12-20T04:51:16;3.30;99.90
19496;DHT22;9888;48.606;9.630;2023-12-20T04:53:43;3.20;99.90
19496;DHT22;9888;48.606;9.630;2023-12-20T04:56:12;3.20;99.90
19496;DHT22;9888;48.606;9.630;2023-12-20T04:58:40;3.20;99.90
19496;DHT22;9888;48.606;9.630;2023-12-20T05:01:09;3.20;99.90
19496;DHT22;9888;48.606;9.630;2023-12-20T05:03:38;3.10;99.90
19496;DHT22;9888;48.606;9.630;2023-12-20T05:06:05;3.20;99.90
19496;DHT22;9888;48.606;9.630;2023-12-20T05:08:35;3.10;99.90
19496;DHT22;9888;48.606;9.630;2023-12-20T05:11:05;3.10;99.90
19496;DHT22;9888;48.606;9.630;2023-12-20T05:13:32;3.10;99.90
19496;DHT22;9888;48.606;9.630;2023-12-20T05:16:00;3.10;99.90
19496;DHT22;9888;48.606;9.630;2023-12-20T05:18:27;3.10;99.90
19496;DHT22;9888;48.606;9.630;2023-12-20T05:20:54;3.10;99.90
19496;DHT22;9888;48.606;9.630;2023-12-20T05:23:22;3.20;99.90
19496;DHT22;9888;48.606;9.630;2023-12-20T05:25:49;3.20;99.90
19496;DHT22;9888;48.606;9.630;2023-12-20T05:28:26;3.20;99.90
19496;DHT22;9888;48.606;9.630;2023-12-20T05:30:54;3.20;99.90
19496;DHT22;9888;48.606;9.630;2023-12-20T05:33:21;3.20;99.90
19496;DHT22;9888;48.606;9.630;2023-12-20T05:35:48;3.20;99.90
19496;DHT22;9888;48.606;9.630;2023-12-20T05:38:16;3.20;99.90
19496;DHT22;9888;48.606;9.630;2023-12-20T05:40:43;3.20;99.90
19496;DHT22;9888;48.606;9.630;2023-12-20T05:43:11;3.20;99.90
19496;DHT22;9888;48.606;9.630;2023-12-20T05:45:39;3.20;99.90
19496;DHT22;9888;48.606;9.630;2023-12-20T05:48:06;3.20;99.90
19496;DHT22;9888;48.606;9.630;2023-12-20T05:50:34;3.20;99.90
19496;DHT22;9888;48.606;9.630;2023-12-20T05:53:01;3.20;99.90
19496;DHT22;9888;48.606;9.630;2023-12-20T05:55:29;3.20;99.90
19496;DHT22;9888;48.606;9.630;2023-12-20T05:57:57;3.20;99.90
19496;DHT22;9888;48.606;9.630;2023-12-20T06:00:25;3.20;99.90
19496;DHT22;9888;48.606;9.630;2023-12-20T06:02:53;3.20;99.90
19496;DHT22;9888;48.606;9.630;2023-12-20T06:05:21;3.20;99.90
19496;DHT22;9888;48.606;9.630;2023-12-20T06:07:48;3.20;99.90
19496;DHT22;9888;48.606;9.630;2023-12-20T06:10:17;3.20;99.90
19496;DHT22;9888;48.606;9.630;2023-12-20T06:12:45;3.20;99.90
19496;DHT22;9888;48.606;9.630;2023-12-20T06:15:15;3.30;99.90
19496;DHT22;9888;48.606;9.630;2023-12-20T06:17:43;3.30;99.90
19496;DHT22;9888;48.606;9.630;2023-12-20T06:20:11;3.30;99.90
19496;DHT22;9888;48.606;9.630;2023-12-20T06:22:40;3.30;99.90
19496;DHT22;9888;48.606;9.630;2023-12-20T06:28:30;3.30;99.90
19496;DHT22;9888;48.606;9.630;2023-12-20T06:30:57;3.40;99.90
19496;DHT22;9888;48.606;9.630;2023-12-20T06:33:25;3.40;99.90
19496;DHT22;9888;48.606;9.630;2023-12-20T06:35:54;3.40;99.90
19496;DHT22;9888;48.606;9.630;2023-12-20T06:38:25;3.40;99.90
19496;DHT22;9888;48.606;9.630;2023-12-20T06:40:53;3.40;99.90
19496;DHT22;9888;48.606;9.630;2023-12-20T06:43:20;3.40;99.90
19496;DHT22;9888;48.606;9.630;2023-12-20T06:45:47;3.40;99.90
19496;DHT22;9888;48.606;9.630;2023-12-20T06:48:15;3.40;99.90
19496;DHT22;9888;48.606;9.630;2023-12-20T06:50:42;3.40;99.90
19496;DHT22;9888;48.606;9.630;2023-12-20T06:53:09;3.40;99.90
19496;DHT22;9888;48.606;9.630;2023-12-20T06:55:38;3.50;99.90
19496;DHT22;9888;48.606;9.630;2023-12-20T06:58:05;3.50;99.90
19496;DHT22;9888;48.606;9.630;2023-12-20T07:00:33;3.50;99.90
19496;DHT22;9888;48.606;9.630;2023-12-20T07:03:00;3.50;99.90
19496;DHT22;9888;48.606;9.630;2023-12-20T07:05:28;3.50;99.90
19496;DHT22;9888;48.606;9.630;2023-12-20T07:07:55;3.50;99.90
19496;DHT22;9888;48.606;9.630;2023-12-20T07:10:22;3.50;99.90
19496;DHT22;9888;48.606;9.630;2023-12-20T07:12:51;3.60;99.90
19496;DHT22;9888;48.606;9.630;2023-12-20T07:15:19;3.60;99.90
19496;DHT22;9888;48.606;9.630;2023-12-20T07:17:46;3.60;99.90
19496;DHT22;9888;48.606;9.630;2023-12-20T07:20:14;3.50;99.90
19496;DHT22;9888;48.606;9.630;2023-12-20T07:22:41;3.60;99.90
19496;DHT22;9888;48.606;9.630;2023-12-20T07:25:09;3.60;99.90
19496;DHT22;9888;48.606;9.630;2023-12-20T07:27:37;3.60;99.90
19496;DHT22;9888;48.606;9.630;2023-12-20T07:30:04;3.60;99.90
19496;DHT22;9888;48.606;9.630;2023-12-20T07:32:32;3.60;99.90
19496;DHT22;9888;48.606;9.630;2023-12-20T07:35:01;3.60;99.90
19496;DHT22;9888;48.606;9.630;2023-12-20T07:37:30;3.60;99.90
19496;DHT22;9888;48.606;9.630;2023-12-20T07:39:59;3.60;99.90
19496;DHT22;9888;48.606;9.630;2023-12-20T07:42:25;3.60;99.90
19496;DHT22;9888;48.606;9.630;2023-12-20T07:44:53;3.60;99.90
19496;DHT22;9888;48.606;9.630;2023-12-20T07:47:20;3.60;99.90
19496;DHT22;9888;48.606;9.630;2023-12-20T07:49:49;3.60;99.90
19496;DHT22;9888;48.606;9.630;2023-12-20T07:52:21;3.60;99.90
19496;DHT22;9888;48.606;9.630;2023-12-20T07:54:52;3.70;99.90
19496;DHT22;9888;48.606;9.630;2023-12-20T07:57:20;3.70;99.90
19496;DHT22;9888;48.606;9.630;2023-12-20T07:59:47;3.70;99.90
19496;DHT22;9888;48.606;9.630;2023-12-20T08:02:14;3.70;99.90
19496;DHT22;9888;48.606;9.630;2023-12-20T08:04:42;3.60;99.90
19496;DHT22;9888;48.606;9.630;2023-12-20T08:07:09;3.70;99.90
19496;DHT22;9888;48.606;9.630;2023-12-20T08:09:36;3.70;99.90
19496;DHT22;9888;48.606;9.630;2023-12-20T08:12:03;3.70;99.90
19496;DHT22;9888;48.606;9.630;2023-12-20T08:14:32;3.70;99.90
19496;DHT22;9888;48.606;9.630;2023-12-20T08:16:59;3.70;99.90
19496;DHT22;9888;48.606;9.630;2023-12-20T08:19:26;3.70;99.90
19496;DHT22;9888;48.606;9.630;2023-12-20T08:21:54;3.70;99.90
19496;DHT22;9888;48.606;9.630;2023-12-20T08:24:22;3.70;99.90
19496;DHT22;9888;48.606;9.630;2023-12-20T08:26:49;3.60;99.90
19496;DHT22;9888;48.606;9.630;2023-12-20T08:29:16;3.60;99.90
19496;DHT22;9888;48.606;9.630;2023-12-20T08:31:43;3.60;99.90
19496;DHT22;9888;48.606;9.630;2023-12-20T08:34:11;3.50;99.90
19496;DHT22;9888;48.606;9.630;2023-12-20T08:36:40;3.60;99.90
19496;DHT22;9888;48.606;9.630;2023-12-20T08:39:07;3.50;99.90
19496;DHT22;9888;48.606;9.630;2023-12-20T08:41:35;3.50;99.90
19496;DHT22;9888;48.606;9.630;2023-12-20T08:44:03;3.50;99.90
19496;DHT22;9888;48.606;9.630;2023-12-20T08:46:30;3.50;99.90
19496;DHT22;9888;48.606;9.630;2023-12-20T08:48:58;3.50;99.90
19496;DHT22;9888;48.606;9.630;2023-12-20T08:51:27;3.50;99.90
19496;DHT22;9888;48.606;9.630;2023-12-20T08:53:56;3.50;99.90
19496;DHT22;9888;48.606;9.630;2023-12-20T08:56:25;3.40;99.90
19496;DHT22;9888;48.606;9.630;2023-12-20T08:58:52;3.40;99.90
19496;DHT22;9888;48.606;9.630;2023-12-20T09:01:19;3.30;99.90
19496;DHT22;9888;48.606;9.630;2023-12-20T09:04:10;3.20;99.90
19496;DHT22;9888;48.606;9.630;2023-12-20T09:06:38;3.10;99.90
19496;DHT22;9888;48.606;9.630;2023-12-20T09:09:07;3.00;99.90
19496;DHT22;9888;48.606;9.630;2023-12-20T09:11:37;3.00;99.90
19496;DHT22;9888;48.606;9.630;2023-12-20T09:14:16;2.90;99.90
19496;DHT22;9888;48.606;9.630;2023-12-20T09:16:43;2.90;99.90
19496;DHT22;9888;48.606;9.630;2023-12-20T09:19:11;2.90;99.90
19496;DHT22;9888;48.606;9.630;2023-12-20T09:21:37;2.90;99.90
19496;DHT22;9888;48.606;9.630;2023-12-20T09:24:05;2.80;99.90
19496;DHT22;9888;48.606;9.630;2023-12-20T09:26:32;2.80;99.90
19496;DHT22;9888;48.606;9.630;2023-12-20T09:29:00;2.80;99.90
19496;DHT22;9888;48.606;9.630;2023-12-20T09:31:33;2.70;99.90
19496;DHT22;9888;48.606;9.630;2023-12-20T09:34:00;2.50;99.90
19496;DHT22;9888;48.606;9.630;2023-12-20T09:36:27;2.60;99.90
19496;DHT22;9888;48.606;9.630;2023-12-20T09:38:54;2.60;99.90
19496;DHT22;9888;48.606;9.630;2023-12-20T09:41:21;2.60;99.90
19496;DHT22;9888;48.606;9.630;2023-12-20T09:43:50;2.60;99.90
19496;DHT22;9888;48.606;9.630;2023-12-20T09:46:23;2.50;99.90
19496;DHT22;9888;48.606;9.630;2023-12-20T09:48:51;2.60;99.90
19496;DHT22;9888;48.606;9.630;2023-12-20T09:51:20;2.50;99.90
19496;DHT22;9888;48.606;9.630;2023-12-20T09:53:48;2.60;99.90
19496;DHT22;9888;48.606;9.630;2023-12-20T09:56:15;2.70;99.90
19496;DHT22;9888;48.606;9.630;2023-12-20T09:58:43;2.70;99.90
19496;DHT22;9888;48.606;9.630;2023-12-20T10:01:11;2.80;99.90
19496;DHT22;9888;48.606;9.630;2023-12-20T10:03:39;3.00;99.90
19496;DHT22;9888;48.606;9.630;2023-12-20T10:06:08;3.00;99.90
19496;DHT22;9888;48.606;9.630;2023-12-20T10:08:37;3.10;99.90
19496;DHT22;9888;48.606;9.630;2023-12-20T10:11:05;3.20;99.90
19496;DHT22;9888;48.606;9.630;2023-12-20T10:13:33;3.10;99.90
19496;DHT22;9888;48.606;9.630;2023-12-20T10:15:59;3.00;99.90
19496;DHT22;9888;48.606;9.630;2023-12-20T10:18:29;3.10;99.90
19496;DHT22;9888;48.606;9.630;2023-12-20T10:20:57;3.20;99.90
19496;DHT22;9888;48.606;9.630;2023-12-20T10:23:32;3.20;99.90
19496;DHT22;9888;48.606;9.630;2023-12-20T10:26:01;3.20;99.90
19496;DHT22;9888;48.606;9.630;2023-12-20T10:28:34;3.10;99.90
19496;DHT22;9888;48.606;9.630;2023-12-20T10:31:01;3.10;99.90
19496;DHT22;9888;48.606;9.630;2023-12-20T10:33:30;3.00;99.90
19496;DHT22;9888;48.606;9.630;2023-12-20T10:35:59;3.00;99.90
19496;DHT22;9888;48.606;9.630;2023-12-20T10:38:26;2.90;99.90
19496;DHT22;9888;48.606;9.630;2023-12-20T10:40:58;2.80;99.90
19496;DHT22;9888;48.606;9.630;2023-12-20T10:43:30;2.80;99.90
19496;DHT22;9888;48.606;9.630;2023-12-20T10:46:00;2.80;99.90
19496;DHT22;9888;48.606;9.630;2023-12-20T10:48:28;2.90;99.90
19496;DHT22;9888;48.606;9.630;2023-12-20T10:50:58;2.90;99.90
19496;DHT22;9888;48.606;9.630;2023-12-20T10:53:28;2.90;99.90
19496;DHT22;9888;48.606;9.630;2023-12-20T10:55:56;3.00;99.90
19496;DHT22;9888;48.606;9.630;2023-12-20T10:58:29;3.00;99.90
19496;DHT22;9888;48.606;9.630;2023-12-20T11:01:03;2.90;99.90
19496;DHT22;9888;48.606;9.630;2023-12-20T11:03:35;2.80;99.90
19496;DHT22;9888;48.606;9.630;2023-12-20T11:09:23;2.80;99.90
19496;DHT22;9888;48.606;9.630;2023-12-20T11:12:16;2.80;99.90
19496;DHT22;9888;48.606;9.630;2023-12-20T11:14:52;2.90;99.90
19496;DHT22;9888;48.606;9.630;2023-12-20T11:17:23;2.80;99.90
19496;DHT22;9888;48.606;9.630;2023-12-20T11:20:14;2.80;99.90
19496;DHT22;9888;48.606;9.630;2023-12-20T11:22:55;2.90;99.90
19496;DHT22;9888;48.606;9.630;2023-12-20T11:25:27;2.90;99.90
19496;DHT22;9888;48.606;9.630;2023-12-20T11:28:11;3.00;99.90
19496;DHT22;9888;48.606;9.630;2023-12-20T11:30:47;3.10;99.90
19496;DHT22;9888;48.606;9.630;2023-12-20T11:33:15;3.20;99.90
19496;DHT22;9888;48.606;9.630;2023-12-20T11:35:43;3.20;99.90
19496;DHT22;9888;48.606;9.630;2023-12-20T11:38:12;3.20;99.90
19496;DHT22;9888;48.606;9.630;2023-12-20T11:40:42;3.40;99.90
19496;DHT22;9888;48.606;9.630;2023-12-20T11:43:11;3.50;99.90
19496;DHT22;9888;48.606;9.630;2023-12-20T11:45:37;3.50;99.90
19496;DHT22;9888;48.606;9.630;2023-12-20T11:48:17;3.40;99.90
19496;DHT22;9888;48.606;9.630;2023-12-20T11:50:48;3.40;99.90
19496;DHT22;9888;48.606;9.630;2023-12-20T11:53:15;3.30;99.90
19496;DHT22;9888;48.606;9.630;2023-12-20T11:55:51;3.20;99.90
19496;DHT22;9888;48.606;9.630;2023-12-20T11:58:18;3.30;99.90
19496;DHT22;9888;48.606;9.630;2023-12-20T12:00:45;3.30;99.90
19496;DHT22;9888;48.606;9.630;2023-12-20T12:03:15;3.30;99.90
19496;DHT22;9888;48.606;9.630;2023-12-20T12:05:43;3.30;99.90
19496;DHT22;9888;48.606;9.630;2023-12-20T12:08:13;3.30;99.90
19496;DHT22;9888;48.606;9.630;2023-12-20T12:10:41;3.30;99.90
19496;DHT22;9888;48.606;9.630;2023-12-20T12:13:10;3.20;99.90
19496;DHT22;9888;48.606;9.630;2023-12-20T12:15:37;3.20;99.90
19496;DHT22;9888;48.606;9.630;2023-12-20T12:18:08;3.20;99.90
19496;DHT22;9888;48.606;9.630;2023-12-20T12:20:37;3.20;99.90
19496;DHT22;9888;48.606;9.630;2023-12-20T12:23:05;3.30;99.90
19496;DHT22;9888;48.606;9.630;2023-12-20T12:25:36;3.50;99.90
19496;DHT22;9888;48.606;9.630;2023-12-20T12:28:04;3.50;99.90
19496;DHT22;9888;48.606;9.630;2023-12-20T12:30:31;3.60;99.90
19496;DHT22;9888;48.606;9.630;2023-12-20T12:32:59;3.50;99.90
19496;DHT22;9888;48.606;9.630;2023-12-20T12:35:26;3.60;99.90
19496;DHT22;9888;48.606;9.630;2023-12-20T12:37:53;3.60;99.90
19496;DHT22;9888;48.606;9.630;2023-12-20T12:40:20;3.60;99.90
19496;DHT22;9888;48.606;9.630;2023-12-20T12:42:48;3.50;99.90
19496;DHT22;9888;48.606;9.630;2023-12-20T12:45:15;3.40;99.90
19496;DHT22;9888;48.606;9.630;2023-12-20T12:47:43;3.30;99.90
19496;DHT22;9888;48.606;9.630;2023-12-20T12:50:10;3.30;99.90
19496;DHT22;9888;48.606;9.630;2023-12-20T12:52:45;3.30;99.90
19496;DHT22;9888;48.606;9.630;2023-12-20T12:55:12;3.20;99.90
19496;DHT22;9888;48.606;9.630;2023-12-20T12:57:41;3.10;99.90
19496;DHT22;9888;48.606;9.630;2023-12-20T13:00:09;3.10;99.90
19496;DHT22;9888;48.606;9.630;2023-12-20T13:02:38;3.00;99.90
19496;DHT22;9888;48.606;9.630;2023-12-20T13:05:08;3.00;99.90
19496;DHT22;9888;48.606;9.630;2023-12-20T13:07:36;3.00;99.90
19496;DHT22;9888;48.606;9.630;2023-12-20T13:10:04;3.00;99.90
19496;DHT22;9888;48.606;9.630;2023-12-20T13:12:32;3.00;99.90
19496;DHT22;9888;48.606;9.630;2023-12-20T13:15:00;3.00;99.90
19496;DHT22;9888;48.606;9.630;2023-12-20T13:17:31;2.90;99.90
19496;DHT22;9888;48.606;9.630;2023-12-20T13:19:59;2.80;99.90
19496;DHT22;9888;48.606;9.630;2023-12-20T13:22:36;2.80;99.90
19496;DHT22;9888;48.606;9.630;2023-12-20T13:25:03;2.70;99.90
19496;DHT22;9888;48.606;9.630;2023-12-20T13:27:31;2.60;99.90
19496;DHT22;9888;48.606;9.630;2023-12-20T13:29:59;2.60;99.90
19496;DHT22;9888;48.606;9.630;2023-12-20T13:32:26;2.60;99.90
19496;DHT22;9888;48.606;9.630;2023-12-20T13:34:53;2.60;99.90
19496;DHT22;9888;48.606;9.630;2023-12-20T13:37:21;2.70;99.90
19496;DHT22;9888;48.606;9.630;2023-12-20T13:39:48;2.80;99.90
19496;DHT22;9888;48.606;9.630;2023-12-20T13:42:16;2.80;99.90
19496;DHT22;9888;48.606;9.630;2023-12-20T13:44:43;2.80;99.90
19496;DHT22;9888;48.606;9.630;2023-12-20T13:47:11;2.90;99.90
19496;DHT22;9888;48.606;9.630;2023-12-20T13:49:39;2.90;99.90
19496;DHT22;9888;48.606;9.630;2023-12-20T13:52:07;2.90;99.90
19496;DHT22;9888;48.606;9.630;2023-12-20T13:54:34;2.90;99.90
19496;DHT22;9888;48.606;9.630;2023-12-20T13:57:05;3.00;99.90
19496;DHT22;9888;48.606;9.630;2023-12-20T13:59:35;3.00;99.90
19496;DHT22;9888;48.606;9.630;2023-12-20T14:02:03;3.00;99.90
19496;DHT22;9888;48.606;9.630;2023-12-20T14:04:32;3.00;99.90
19496;DHT22;9888;48.606;9.630;2023-12-20T14:06:59;3.00;99.90
19496;DHT22;9888;48.606;9.630;2023-12-20T14:09:26;3.00;99.90
19496;DHT22;9888;48.606;9.630;2023-12-20T14:11:55;3.00;99.90
19496;DHT22;9888;48.606;9.630;2023-12-20T14:14:24;3.00;99.90
19496;DHT22;9888;48.606;9.630;2023-12-20T14:16:51;3.00;99.90
19496;DHT22;9888;48.606;9.630;2023-12-20T14:19:19;3.00;99.90
19496;DHT22;9888;48.606;9.630;2023-12-20T14:21:47;3.00;99.90
19496;DHT22;9888;48.606;9.630;2023-12-20T14:24:15;3.10;99.90
19496;DHT22;9888;48.606;9.630;2023-12-20T14:26:43;3.10;99.90
19496;DHT22;9888;48.606;9.630;2023-12-20T14:29:10;3.00;99.90
19496;DHT22;9888;48.606;9.630;2023-12-20T14:31:39;3.00;99.90
19496;DHT22;9888;48.606;9.630;2023-12-20T14:34:36;3.00;99.90
19496;DHT22;9888;48.606;9.630;2023-12-20T14:37:04;3.00;99.90
19496;DHT22;9888;48.606;9.630;2023-12-20T14:39:32;3.00;99.90
19496;DHT22;9888;48.606;9.630;2023-12-20T14:42:00;3.00;99.90
19496;DHT22;9888;48.606;9.630;2023-12-20T14:44:28;3.00;99.90
19496;DHT22;9888;48.606;9.630;2023-12-20T14:46:56;3.00;99.90
19496;DHT22;9888;48.606;9.630;2023-12-20T14:49:27;2.90;99.90
19496;DHT22;9888;48.606;9.630;2023-12-20T14:51:59;2.80;99.90
19496;DHT22;9888;48.606;9.630;2023-12-20T14:54:26;2.90;99.90
19496;DHT22;9888;48.606;9.630;2023-12-20T14:56:58;2.90;99.90
19496;DHT22;9888;48.606;9.630;2023-12-20T14:59:26;2.90;99.90
19496;DHT22;9888;48.606;9.630;2023-12-20T15:01:54;3.00;99.90
19496;DHT22;9888;48.606;9.630;2023-12-20T15:04:29;2.90;99.90
19496;DHT22;9888;48.606;9.630;2023-12-20T15:06:56;2.90;99.90
19496;DHT22;9888;48.606;9.630;2023-12-20T15:09:23;3.00;99.90
19496;DHT22;9888;48.606;9.630;2023-12-20T15:11:51;2.90;99.90
19496;DHT22;9888;48.606;9.630;2023-12-20T15:14:18;2.90;99.90
19496;DHT22;9888;48.606;9.630;2023-12-20T15:16:47;2.90;99.90
19496;DHT22;9888;48.606;9.630;2023-12-20T15:19:16;2.80;99.90
19496;DHT22;9888;48.606;9.630;2023-12-20T15:21:43;2.90;99.90
19496;DHT22;9888;48.606;9.630;2023-12-20T15:24:13;2.90;99.90
19496;DHT22;9888;48.606;9.630;2023-12-20T15:26:47;2.90;99.90
19496;DHT22;9888;48.606;9.630;2023-12-20T15:29:15;2.90;99.90
19496;DHT22;9888;48.606;9.630;2023-12-20T15:31:45;2.90;99.90
19496;DHT22;9888;48.606;9.630;2023-12-20T15:34:23;2.90;99.90
19496;DHT22;9888;48.606;9.630;2023-12-20T15:36:51;2.90;99.90
19496;DHT22;9888;48.606;9.630;2023-12-20T15:39:21;2.90;99.90
19496;DHT22;9888;48.606;9.630;2023-12-20T15:41:51;2.90;99.90
19496;DHT22;9888;48.606;9.630;2023-12-20T15:44:20;2.90;99.90
19496;DHT22;9888;48.606;9.630;2023-12-20T15:46:49;2.90;99.90
19496;DHT22;9888;48.606;9.630;2023-12-20T15:49:18;2.90;99.90
19496;DHT22;9888;48.606;9.630;2023-12-20T15:52:15;2.80;99.90
19496;DHT22;9888;48.606;9.630;2023-12-20T15:54:46;2.90;99.90
19496;DHT22;9888;48.606;9.630;2023-12-20T15:57:14;2.80;99.90
19496;DHT22;9888;48.606;9.630;2023-12-20T15:59:45;2.80;99.90
19496;DHT22;9888;48.606;9.630;2023-12-20T16:02:13;2.80;99.90
19496;DHT22;9888;48.606;9.630;2023-12-20T16:04:42;2.70;99.90
19496;DHT22;9888;48.606;9.630;2023-12-20T16:07:11;2.60;99.90
19496;DHT22;9888;48.606;9.630;2023-12-20T16:09:39;2.60;99.90
19496;DHT22;9888;48.606;9.630;2023-12-20T16:12:07;2.50;99.90
19496;DHT22;9888;48.606;9.630;2023-12-20T16:14:37;2.60;99.90
19496;DHT22;9888;48.606;9.630;2023-12-20T16:17:04;2.60;99.90
19496;DHT22;9888;48.606;9.630;2023-12-20T16:19:33;2.60;99.90
19496;DHT22;9888;48.606;9.630;2023-12-20T16:22:02;2.70;99.90
19496;DHT22;9888;48.606;9.630;2023-12-20T16:24:30;2.70;99.90
19496;DHT22;9888;48.606;9.630;2023-12-20T16:26:58;2.70;99.90
19496;DHT22;9888;48.606;9.630;2023-12-20T16:29:26;2.70;99.90
19496;DHT22;9888;48.606;9.630;2023-12-20T16:31:53;2.80;99.90
19496;DHT22;9888;48.606;9.630;2023-12-20T16:37:12;2.80;99.90
19496;DHT22;9888;48.606;9.630;2023-12-20T16:39:39;2.80;99.90
19496;DHT22;9888;48.606;9.630;2023-12-20T16:42:07;2.80;99.90